sensor_id;sensor_type;location;lat;lon;timestamp;P1;durP1;ratioP1;P2;durP2;ratioP2
21848;SDS011;11089;49.852;19.700;2022-09-17T00:01:59;6.50;;;3.90;;
21848;SDS011;11089;49.852;19.700;2022-09-17T00:05:00;6.43;;;4.00;;
21848;SDS011;11089;49.852;19.700;2022-09-17T00:08:01;8.07;;;4.07;;
21848;SDS011;11089;49.852;19.700;2022-09-17T00:14:13;7.03;;;3.92;;
21848;SDS011;11089;49.852;19.700;2022-09-17T00:17:16;5.53;;;4.07;;
21848;SDS011;11089;49.852;19.700;2022-09-17T00:20:17;6.20;;;4.13;;
21848;SDS011;11089;49.852;19.700;2022-09-17T00:23:18;5.38;;;3.75;;
21848;SDS011;11089;49.852;19.700;2022-09-17T00:26:19;6.72;;;3.97;;
21848;SDS011;11089;49.852;19.700;2022-09-17T00:29:20;7.97;;;3.92;;
21848;SDS011;11089;49.852;19.700;2022-09-17T00:32:21;5.38;;;4.20;;
21848;SDS011;11089;49.852;19.700;2022-09-17T00:35:23;7.07;;;4.10;;
21848;SDS011;11089;49.852;19.700;2022-09-17T00:38:25;6.57;;;3.97;;
21848;SDS011;11089;49.852;19.700;2022-09-17T00:41:28;6.32;;;4.40;;
21848;SDS011;11089;49.852;19.700;2022-09-17T00:48:20;8.02;;;4.25;;
21848;SDS011;11089;49.852;19.700;2022-09-17T00:51:15;6.45;;;3.92;;
21848;SDS011;11089;49.852;19.700;2022-09-17T00:54:19;5.57;;;3.58;;
21848;SDS011;11089;49.852;19.700;2022-09-17T00:57:20;4.28;;;3.05;;
21848;SDS011;11089;49.852;19.700;2022-09-17T01:00:21;4.25;;;3.10;;
21848;SDS011;11089;49.852;19.700;2022-09-17T01:03:22;5.68;;;3.35;;
21848;SDS011;11089;49.852;19.700;2022-09-17T01:29:45;6.30;;;3.30;;
21848;SDS011;11089;49.852;19.700;2022-09-17T01:33:12;4.45;;;3.25;;
21848;SDS011;11089;49.852;19.700;2022-09-17T01:42:53;6.85;;;3.15;;
21848;SDS011;11089;49.852;19.700;2022-09-17T01:46:06;4.68;;;3.05;;
21848;SDS011;11089;49.852;19.700;2022-09-17T01:49:20;5.55;;;3.50;;
21848;SDS011;11089;49.852;19.700;2022-09-17T01:52:24;7.88;;;4.07;;
21848;SDS011;11089;49.852;19.700;2022-09-17T01:55:28;5.43;;;3.40;;
21848;SDS011;11089;49.852;19.700;2022-09-17T01:58:33;4.13;;;3.40;;
21848;SDS011;11089;49.852;19.700;2022-09-17T02:01:40;4.72;;;3.38;;
21848;SDS011;11089;49.852;19.700;2022-09-17T02:04:45;6.68;;;3.30;;
21848;SDS011;11089;49.852;19.700;2022-09-17T02:07:58;7.10;;;3.38;;
21848;SDS011;11089;49.852;19.700;2022-09-17T02:11:15;5.45;;;3.30;;
21848;SDS011;11089;49.852;19.700;2022-09-17T02:14:20;6.53;;;3.40;;
21848;SDS011;11089;49.852;19.700;2022-09-17T02:17:31;5.40;;;3.60;;
21848;SDS011;11089;49.852;19.700;2022-09-17T02:20:45;5.20;;;3.33;;
21848;SDS011;11089;49.852;19.700;2022-09-17T02:23:55;5.55;;;3.55;;
21848;SDS011;11089;49.852;19.700;2022-09-17T02:27:26;5.75;;;3.55;;
21848;SDS011;11089;49.852;19.700;2022-09-17T02:30:43;6.72;;;3.53;;
21848;SDS011;11089;49.852;19.700;2022-09-17T02:33:47;5.65;;;3.20;;
21848;SDS011;11089;49.852;19.700;2022-09-17T02:36:50;5.53;;;3.28;;
21848;SDS011;11089;49.852;19.700;2022-09-17T02:39:52;5.35;;;3.00;;
21848;SDS011;11089;49.852;19.700;2022-09-17T02:43:06;5.43;;;3.40;;
21848;SDS011;11089;49.852;19.700;2022-09-17T02:50:01;10.32;;;3.85;;
21848;SDS011;11089;49.852;19.700;2022-09-17T03:03:22;5.45;;;3.70;;
21848;SDS011;11089;49.852;19.700;2022-09-17T03:06:50;5.93;;;3.80;;
21848;SDS011;11089;49.852;19.700;2022-09-17T03:09:52;9.05;;;4.15;;
21848;SDS011;11089;49.852;19.700;2022-09-17T03:12:53;6.45;;;3.97;;
21848;SDS011;11089;49.852;19.700;2022-09-17T03:15:54;4.63;;;3.72;;
21848;SDS011;11089;49.852;19.700;2022-09-17T03:18:55;6.78;;;3.60;;
21848;SDS011;11089;49.852;19.700;2022-09-17T03:21:56;7.50;;;3.15;;
21848;SDS011;11089;49.852;19.700;2022-09-17T03:24:57;5.60;;;3.42;;
21848;SDS011;11089;49.852;19.700;2022-09-17T03:27:58;4.22;;;3.40;;
21848;SDS011;11089;49.852;19.700;2022-09-17T03:30:59;5.45;;;3.45;;
21848;SDS011;11089;49.852;19.700;2022-09-17T03:34:00;9.55;;;3.42;;
21848;SDS011;11089;49.852;19.700;2022-09-17T03:37:01;9.02;;;3.20;;
21848;SDS011;11089;49.852;19.700;2022-09-17T03:40:03;4.45;;;3.13;;
21848;SDS011;11089;49.852;19.700;2022-09-17T03:43:05;4.72;;;3.38;;
21848;SDS011;11089;49.852;19.700;2022-09-17T03:46:06;7.75;;;4.47;;
21848;SDS011;11089;49.852;19.700;2022-09-17T03:49:07;7.20;;;3.67;;
21848;SDS011;11089;49.852;19.700;2022-09-17T03:52:08;5.32;;;3.60;;
21848;SDS011;11089;49.852;19.700;2022-09-17T03:55:09;4.43;;;3.50;;
21848;SDS011;11089;49.852;19.700;2022-09-17T03:58:10;5.00;;;2.72;;
21848;SDS011;11089;49.852;19.700;2022-09-17T04:01:11;4.20;;;3.40;;
21848;SDS011;11089;49.852;19.700;2022-09-17T04:04:12;6.43;;;3.40;;
21848;SDS011;11089;49.852;19.700;2022-09-17T04:07:13;4.75;;;3.38;;
21848;SDS011;11089;49.852;19.700;2022-09-17T04:10:14;5.60;;;3.17;;
21848;SDS011;11089;49.852;19.700;2022-09-17T04:13:16;4.38;;;3.22;;
21848;SDS011;11089;49.852;19.700;2022-09-17T04:16:17;4.65;;;3.30;;
21848;SDS011;11089;49.852;19.700;2022-09-17T04:19:18;5.53;;;3.70;;
21848;SDS011;11089;49.852;19.700;2022-09-17T04:22:19;4.78;;;3.28;;
21848;SDS011;11089;49.852;19.700;2022-09-17T04:25:20;6.32;;;3.60;;
21848;SDS011;11089;49.852;19.700;2022-09-17T04:28:21;7.25;;;3.70;;
21848;SDS011;11089;49.852;19.700;2022-09-17T04:31:22;3.72;;;3.03;;
21848;SDS011;11089;49.852;19.700;2022-09-17T04:34:24;4.45;;;3.15;;
21848;SDS011;11089;49.852;19.700;2022-09-17T04:37:25;7.80;;;3.42;;
21848;SDS011;11089;49.852;19.700;2022-09-17T04:40:26;5.18;;;3.80;;
21848;SDS011;11089;49.852;19.700;2022-09-17T04:43:27;6.68;;;4.13;;
21848;SDS011;11089;49.852;19.700;2022-09-17T04:46:28;4.95;;;3.88;;
21848;SDS011;11089;49.852;19.700;2022-09-17T04:49:29;6.32;;;3.85;;
21848;SDS011;11089;49.852;19.700;2022-09-17T04:52:30;4.38;;;3.33;;
21848;SDS011;11089;49.852;19.700;2022-09-17T04:55:31;6.38;;;3.55;;
21848;SDS011;11089;49.852;19.700;2022-09-17T04:58:32;4.90;;;3.67;;
21848;SDS011;11089;49.852;19.700;2022-09-17T05:01:33;5.75;;;3.25;;
21848;SDS011;11089;49.852;19.700;2022-09-17T05:04:34;6.13;;;3.70;;
21848;SDS011;11089;49.852;19.700;2022-09-17T05:07:37;7.88;;;4.53;;
21848;SDS011;11089;49.852;19.700;2022-09-17T05:10:38;5.30;;;3.70;;
21848;SDS011;11089;49.852;19.700;2022-09-17T05:13:39;5.78;;;3.40;;
21848;SDS011;11089;49.852;19.700;2022-09-17T05:16:40;5.70;;;3.90;;
21848;SDS011;11089;49.852;19.700;2022-09-17T05:19:41;5.18;;;3.70;;
21848;SDS011;11089;49.852;19.700;2022-09-17T05:22:46;5.90;;;3.33;;
21848;SDS011;11089;49.852;19.700;2022-09-17T05:25:48;5.07;;;3.55;;
21848;SDS011;11089;49.852;19.700;2022-09-17T05:28:49;5.20;;;4.00;;
21848;SDS011;11089;49.852;19.700;2022-09-17T05:31:49;8.00;;;3.75;;
21848;SDS011;11089;49.852;19.700;2022-09-17T05:34:50;6.22;;;3.63;;
21848;SDS011;11089;49.852;19.700;2022-09-17T05:37:55;5.68;;;3.65;;
21848;SDS011;11089;49.852;19.700;2022-09-17T05:41:02;5.25;;;3.20;;
21848;SDS011;11089;49.852;19.700;2022-09-17T05:44:05;4.53;;;3.28;;
21848;SDS011;11089;49.852;19.700;2022-09-17T05:47:06;7.88;;;3.30;;
21848;SDS011;11089;49.852;19.700;2022-09-17T05:50:07;6.32;;;3.40;;
21848;SDS011;11089;49.852;19.700;2022-09-17T05:53:12;3.67;;;3.00;;
21848;SDS011;11089;49.852;19.700;2022-09-17T05:56:14;5.57;;;3.70;;
21848;SDS011;11089;49.852;19.700;2022-09-17T05:59:15;7.78;;;3.10;;
21848;SDS011;11089;49.852;19.700;2022-09-17T06:02:16;5.57;;;4.10;;
21848;SDS011;11089;49.852;19.700;2022-09-17T06:05:17;7.30;;;4.38;;
21848;SDS011;11089;49.852;19.700;2022-09-17T06:08:18;7.53;;;4.00;;
21848;SDS011;11089;49.852;19.700;2022-09-17T06:11:19;8.65;;;4.50;;
21848;SDS011;11089;49.852;19.700;2022-09-17T06:14:19;11.35;;;7.63;;
21848;SDS011;11089;49.852;19.700;2022-09-17T06:17:20;8.73;;;6.20;;
21848;SDS011;11089;49.852;19.700;2022-09-17T06:20:21;7.25;;;4.70;;
21848;SDS011;11089;49.852;19.700;2022-09-17T06:23:23;4.38;;;3.25;;
21848;SDS011;11089;49.852;19.700;2022-09-17T06:26:24;5.43;;;2.95;;
21848;SDS011;11089;49.852;19.700;2022-09-17T06:29:25;3.95;;;3.15;;
21848;SDS011;11089;49.852;19.700;2022-09-17T06:32:26;5.28;;;3.08;;
21848;SDS011;11089;49.852;19.700;2022-09-17T06:35:28;4.20;;;3.22;;
21848;SDS011;11089;49.852;19.700;2022-09-17T06:38:29;4.43;;;3.22;;
21848;SDS011;11089;49.852;19.700;2022-09-17T06:41:32;6.10;;;3.50;;
21848;SDS011;11089;49.852;19.700;2022-09-17T06:44:33;4.68;;;3.05;;
21848;SDS011;11089;49.852;19.700;2022-09-17T06:47:34;5.53;;;3.20;;
21848;SDS011;11089;49.852;19.700;2022-09-17T06:50:35;7.05;;;3.40;;
21848;SDS011;11089;49.852;19.700;2022-09-17T06:53:36;4.03;;;3.08;;
21848;SDS011;11089;49.852;19.700;2022-09-17T06:56:37;4.80;;;2.78;;
21848;SDS011;11089;49.852;19.700;2022-09-17T06:59:38;3.97;;;2.75;;
21848;SDS011;11089;49.852;19.700;2022-09-17T07:02:39;3.83;;;2.70;;
21848;SDS011;11089;49.852;19.700;2022-09-17T07:05:41;5.80;;;2.78;;
21848;SDS011;11089;49.852;19.700;2022-09-17T07:08:44;5.75;;;3.08;;
21848;SDS011;11089;49.852;19.700;2022-09-17T07:11:46;4.35;;;2.88;;
21848;SDS011;11089;49.852;19.700;2022-09-17T07:14:47;2.72;;;2.53;;
21848;SDS011;11089;49.852;19.700;2022-09-17T07:17:48;6.00;;;3.00;;
21848;SDS011;11089;49.852;19.700;2022-09-17T07:20:53;3.90;;;3.00;;
21848;SDS011;11089;49.852;19.700;2022-09-17T07:23:57;5.45;;;3.15;;
21848;SDS011;11089;49.852;19.700;2022-09-17T07:26:59;4.85;;;2.78;;
21848;SDS011;11089;49.852;19.700;2022-09-17T07:30:00;3.70;;;2.63;;
21848;SDS011;11089;49.852;19.700;2022-09-17T07:33:01;4.28;;;2.50;;
21848;SDS011;11089;49.852;19.700;2022-09-17T07:36:06;4.65;;;2.38;;
21848;SDS011;11089;49.852;19.700;2022-09-17T07:39:10;2.90;;;2.25;;
21848;SDS011;11089;49.852;19.700;2022-09-17T07:42:12;5.95;;;2.60;;
21848;SDS011;11089;49.852;19.700;2022-09-17T07:45:13;3.67;;;2.20;;
21848;SDS011;11089;49.852;19.700;2022-09-17T07:48:14;3.58;;;2.30;;
21848;SDS011;11089;49.852;19.700;2022-09-17T07:51:19;3.03;;;2.28;;
21848;SDS011;11089;49.852;19.700;2022-09-17T07:54:22;3.53;;;2.20;;
21848;SDS011;11089;49.852;19.700;2022-09-17T07:57:24;4.53;;;2.47;;
21848;SDS011;11089;49.852;19.700;2022-09-17T08:00:25;4.82;;;2.25;;
21848;SDS011;11089;49.852;19.700;2022-09-17T08:03:26;3.63;;;2.20;;
21848;SDS011;11089;49.852;19.700;2022-09-17T08:06:27;5.53;;;2.65;;
21848;SDS011;11089;49.852;19.700;2022-09-17T08:09:28;5.07;;;2.50;;
21848;SDS011;11089;49.852;19.700;2022-09-17T08:12:29;4.93;;;2.50;;
21848;SDS011;11089;49.852;19.700;2022-09-17T08:15:30;6.05;;;3.15;;
21848;SDS011;11089;49.852;19.700;2022-09-17T08:18:31;6.47;;;2.80;;
21848;SDS011;11089;49.852;19.700;2022-09-17T08:21:33;4.93;;;2.88;;
21848;SDS011;11089;49.852;19.700;2022-09-17T08:24:35;3.78;;;2.55;;
21848;SDS011;11089;49.852;19.700;2022-09-17T08:27:36;4.13;;;3.00;;
21848;SDS011;11089;49.852;19.700;2022-09-17T08:30:40;3.70;;;2.58;;
21848;SDS011;11089;49.852;19.700;2022-09-17T08:33:41;4.15;;;2.35;;
21848;SDS011;11089;49.852;19.700;2022-09-17T08:36:42;4.88;;;2.83;;
21848;SDS011;11089;49.852;19.700;2022-09-17T08:39:43;3.58;;;2.60;;
21848;SDS011;11089;49.852;19.700;2022-09-17T08:42:54;3.20;;;2.22;;
21848;SDS011;11089;49.852;19.700;2022-09-17T08:46:00;5.97;;;2.40;;
21848;SDS011;11089;49.852;19.700;2022-09-17T08:56:09;5.82;;;4.10;;
21848;SDS011;11089;49.852;19.700;2022-09-17T08:59:23;4.60;;;2.38;;
21848;SDS011;11089;49.852;19.700;2022-09-17T09:02:36;5.60;;;3.05;;
21848;SDS011;11089;49.852;19.700;2022-09-17T09:06:04;6.88;;;3.40;;
21848;SDS011;11089;49.852;19.700;2022-09-17T09:09:06;3.50;;;2.53;;
21848;SDS011;11089;49.852;19.700;2022-09-17T09:12:24;3.45;;;2.13;;
21848;SDS011;11089;49.852;19.700;2022-09-17T09:18:42;3.42;;;2.55;;
21848;SDS011;11089;49.852;19.700;2022-09-17T09:25:05;4.47;;;2.15;;
21848;SDS011;11089;49.852;19.700;2022-09-17T09:28:23;1.73;;;1.63;;
21848;SDS011;11089;49.852;19.700;2022-09-17T09:31:45;8.70;;;3.30;;
21848;SDS011;11089;49.852;19.700;2022-09-17T09:35:02;18.45;;;6.55;;
21848;SDS011;11089;49.852;19.700;2022-09-17T09:42:42;12.38;;;5.18;;
21848;SDS011;11089;49.852;19.700;2022-09-17T09:45:32;11.18;;;4.45;;
21848;SDS011;11089;49.852;19.700;2022-09-17T09:49:41;13.23;;;5.32;;
21848;SDS011;11089;49.852;19.700;2022-09-17T09:59:07;13.05;;;4.40;;
21848;SDS011;11089;49.852;19.700;2022-09-17T10:02:11;3.22;;;2.25;;
21848;SDS011;11089;49.852;19.700;2022-09-17T10:05:12;6.00;;;2.95;;
21848;SDS011;11089;49.852;19.700;2022-09-17T10:08:13;5.43;;;2.50;;
21848;SDS011;11089;49.852;19.700;2022-09-17T10:11:27;33.08;;;13.25;;
21848;SDS011;11089;49.852;19.700;2022-09-17T10:14:35;40.30;;;14.60;;
21848;SDS011;11089;49.852;19.700;2022-09-17T10:17:38;75.63;;;27.45;;
21848;SDS011;11089;49.852;19.700;2022-09-17T10:23:58;46.85;;;19.30;;
21848;SDS011;11089;49.852;19.700;2022-09-17T10:27:04;26.63;;;12.88;;
21848;SDS011;11089;49.852;19.700;2022-09-17T10:30:13;16.02;;;7.38;;
21848;SDS011;11089;49.852;19.700;2022-09-17T10:33:18;11.35;;;6.07;;
21848;SDS011;11089;49.852;19.700;2022-09-17T10:39:39;4.80;;;3.05;;
21848;SDS011;11089;49.852;19.700;2022-09-17T10:42:46;5.97;;;2.70;;
21848;SDS011;11089;49.852;19.700;2022-09-17T10:46:29;5.40;;;2.53;;
21848;SDS011;11089;49.852;19.700;2022-09-17T10:49:34;7.10;;;2.65;;
21848;SDS011;11089;49.852;19.700;2022-09-17T10:52:40;3.63;;;2.50;;
21848;SDS011;11089;49.852;19.700;2022-09-17T11:02:41;6.22;;;2.53;;
21848;SDS011;11089;49.852;19.700;2022-09-17T11:10:20;3.70;;;2.00;;
21848;SDS011;11089;49.852;19.700;2022-09-17T11:13:21;3.67;;;2.25;;
21848;SDS011;11089;49.852;19.700;2022-09-17T11:23:31;3.05;;;1.95;;
21848;SDS011;11089;49.852;19.700;2022-09-17T11:36:39;4.97;;;2.38;;
21848;SDS011;11089;49.852;19.700;2022-09-17T11:39:48;3.47;;;2.35;;
21848;SDS011;11089;49.852;19.700;2022-09-17T11:42:57;3.60;;;2.42;;
21848;SDS011;11089;49.852;19.700;2022-09-17T11:46:11;6.13;;;2.35;;
21848;SDS011;11089;49.852;19.700;2022-09-17T11:52:35;2.90;;;1.90;;
21848;SDS011;11089;49.852;19.700;2022-09-17T11:55:50;3.85;;;2.38;;
21848;SDS011;11089;49.852;19.700;2022-09-17T11:59:18;3.72;;;2.15;;
21848;SDS011;11089;49.852;19.700;2022-09-17T12:02:33;6.40;;;2.03;;
21848;SDS011;11089;49.852;19.700;2022-09-17T12:05:54;4.90;;;2.15;;
21848;SDS011;11089;49.852;19.700;2022-09-17T12:09:02;4.43;;;2.70;;
21848;SDS011;11089;49.852;19.700;2022-09-17T12:12:14;4.00;;;2.33;;
21848;SDS011;11089;49.852;19.700;2022-09-17T12:15:21;4.45;;;2.05;;
21848;SDS011;11089;49.852;19.700;2022-09-17T12:18:40;3.70;;;2.30;;
21848;SDS011;11089;49.852;19.700;2022-09-17T12:22:03;4.82;;;1.98;;
21848;SDS011;11089;49.852;19.700;2022-09-17T12:25:29;3.78;;;2.35;;
21848;SDS011;11089;49.852;19.700;2022-09-17T12:28:38;5.00;;;2.50;;
21848;SDS011;11089;49.852;19.700;2022-09-17T12:31:57;4.05;;;2.53;;
21848;SDS011;11089;49.852;19.700;2022-09-17T12:38:33;6.50;;;2.30;;
21848;SDS011;11089;49.852;19.700;2022-09-17T12:45:21;2.10;;;1.80;;
21848;SDS011;11089;49.852;19.700;2022-09-17T12:52:01;3.50;;;1.90;;
21848;SDS011;11089;49.852;19.700;2022-09-17T12:58:31;3.42;;;2.10;;
21848;SDS011;11089;49.852;19.700;2022-09-17T13:01:46;2.30;;;1.90;;
21848;SDS011;11089;49.852;19.700;2022-09-17T13:11:39;2.92;;;1.95;;
21848;SDS011;11089;49.852;19.700;2022-09-17T13:18:15;4.45;;;2.30;;
21848;SDS011;11089;49.852;19.700;2022-09-17T13:21:22;3.03;;;2.15;;
21848;SDS011;11089;49.852;19.700;2022-09-17T13:24:42;3.53;;;2.17;;
21848;SDS011;11089;49.852;19.700;2022-09-17T13:27:48;3.60;;;2.05;;
21848;SDS011;11089;49.852;19.700;2022-09-17T13:30:55;4.75;;;2.38;;
21848;SDS011;11089;49.852;19.700;2022-09-17T13:33:58;2.92;;;2.30;;
21848;SDS011;11089;49.852;19.700;2022-09-17T13:37:03;5.05;;;2.40;;
21848;SDS011;11089;49.852;19.700;2022-09-17T13:40:23;7.38;;;2.63;;
21848;SDS011;11089;49.852;19.700;2022-09-17T13:43:35;4.43;;;2.60;;
21848;SDS011;11089;49.852;19.700;2022-09-17T13:46:45;2.90;;;2.28;;
21848;SDS011;11089;49.852;19.700;2022-09-17T13:49:54;4.18;;;2.60;;
21848;SDS011;11089;49.852;19.700;2022-09-17T13:59:30;3.70;;;2.28;;
21848;SDS011;11089;49.852;19.700;2022-09-17T14:02:32;2.83;;;2.20;;
21848;SDS011;11089;49.852;19.700;2022-09-17T14:05:34;7.15;;;3.17;;
21848;SDS011;11089;49.852;19.700;2022-09-17T14:11:55;3.30;;;2.20;;
21848;SDS011;11089;49.852;19.700;2022-09-17T14:14:56;4.88;;;2.80;;
21848;SDS011;11089;49.852;19.700;2022-09-17T14:17:57;4.88;;;2.70;;
21848;SDS011;11089;49.852;19.700;2022-09-17T14:21:08;4.75;;;2.72;;
21848;SDS011;11089;49.852;19.700;2022-09-17T14:24:21;5.15;;;2.97;;
21848;SDS011;11089;49.852;19.700;2022-09-17T14:28:09;4.47;;;2.67;;
21848;SDS011;11089;49.852;19.700;2022-09-17T14:30:51;5.00;;;2.88;;
21848;SDS011;11089;49.852;19.700;2022-09-17T14:33:52;5.25;;;3.25;;
21848;SDS011;11089;49.852;19.700;2022-09-17T14:36:54;7.10;;;3.25;;
21848;SDS011;11089;49.852;19.700;2022-09-17T14:39:56;4.13;;;3.10;;
21848;SDS011;11089;49.852;19.700;2022-09-17T14:42:58;3.55;;;2.85;;
21848;SDS011;11089;49.852;19.700;2022-09-17T14:46:01;5.13;;;3.15;;
21848;SDS011;11089;49.852;19.700;2022-09-17T14:49:38;5.75;;;3.20;;
21848;SDS011;11089;49.852;19.700;2022-09-17T14:52:33;16.05;;;8.38;;
21848;SDS011;11089;49.852;19.700;2022-09-17T14:55:38;10.48;;;6.53;;
21848;SDS011;11089;49.852;19.700;2022-09-17T14:58:40;9.93;;;4.90;;
21848;SDS011;11089;49.852;19.700;2022-09-17T15:01:47;8.02;;;4.70;;
21848;SDS011;11089;49.852;19.700;2022-09-17T15:04:48;9.00;;;4.82;;
21848;SDS011;11089;49.852;19.700;2022-09-17T15:07:49;12.32;;;5.10;;
21848;SDS011;11089;49.852;19.700;2022-09-17T15:10:51;11.43;;;5.30;;
21848;SDS011;11089;49.852;19.700;2022-09-17T15:13:58;10.60;;;5.38;;
21848;SDS011;11089;49.852;19.700;2022-09-17T15:17:00;11.40;;;5.53;;
21848;SDS011;11089;49.852;19.700;2022-09-17T15:20:02;13.23;;;6.10;;
21848;SDS011;11089;49.852;19.700;2022-09-17T15:23:11;9.75;;;5.47;;
21848;SDS011;11089;49.852;19.700;2022-09-17T15:26:24;13.57;;;5.47;;
21848;SDS011;11089;49.852;19.700;2022-09-17T15:29:31;12.35;;;5.90;;
21848;SDS011;11089;49.852;19.700;2022-09-17T15:32:33;15.35;;;6.55;;
21848;SDS011;11089;49.852;19.700;2022-09-17T15:35:34;17.10;;;6.50;;
21848;SDS011;11089;49.852;19.700;2022-09-17T15:38:35;14.82;;;5.80;;
21848;SDS011;11089;49.852;19.700;2022-09-17T15:41:38;13.70;;;6.72;;
21848;SDS011;11089;49.852;19.700;2022-09-17T15:44:41;13.70;;;6.70;;
21848;SDS011;11089;49.852;19.700;2022-09-17T15:50:59;13.23;;;7.03;;
21848;SDS011;11089;49.852;19.700;2022-09-17T15:54:03;18.60;;;6.80;;
21848;SDS011;11089;49.852;19.700;2022-09-17T15:57:10;18.17;;;8.10;;
21848;SDS011;11089;49.852;19.700;2022-09-17T16:00:14;14.80;;;7.35;;
21848;SDS011;11089;49.852;19.700;2022-09-17T16:04:00;18.23;;;8.23;;
21848;SDS011;11089;49.852;19.700;2022-09-17T16:06:47;22.73;;;9.88;;
21848;SDS011;11089;49.852;19.700;2022-09-17T16:09:57;20.30;;;9.15;;
21848;SDS011;11089;49.852;19.700;2022-09-17T16:12:58;16.52;;;8.85;;
21848;SDS011;11089;49.852;19.700;2022-09-17T16:15:59;25.58;;;11.45;;
21848;SDS011;11089;49.852;19.700;2022-09-17T16:19:01;16.92;;;9.23;;
21848;SDS011;11089;49.852;19.700;2022-09-17T16:22:03;12.65;;;6.78;;
21848;SDS011;11089;49.852;19.700;2022-09-17T16:25:04;12.80;;;7.00;;
21848;SDS011;11089;49.852;19.700;2022-09-17T16:28:08;9.32;;;5.30;;
21848;SDS011;11089;49.852;19.700;2022-09-17T16:31:12;9.55;;;5.85;;
21848;SDS011;11089;49.852;19.700;2022-09-17T16:34:13;9.30;;;5.38;;
21848;SDS011;11089;49.852;19.700;2022-09-17T16:37:14;6.60;;;4.60;;
21848;SDS011;11089;49.852;19.700;2022-09-17T16:40:15;7.97;;;5.32;;
21848;SDS011;11089;49.852;19.700;2022-09-17T16:43:17;7.00;;;4.80;;
21848;SDS011;11089;49.852;19.700;2022-09-17T16:46:18;10.00;;;5.32;;
21848;SDS011;11089;49.852;19.700;2022-09-17T16:49:19;10.63;;;4.95;;
21848;SDS011;11089;49.852;19.700;2022-09-17T16:52:20;9.80;;;4.70;;
21848;SDS011;11089;49.852;19.700;2022-09-17T16:55:21;10.15;;;5.45;;
21848;SDS011;11089;49.852;19.700;2022-09-17T16:58:22;9.30;;;5.63;;
21848;SDS011;11089;49.852;19.700;2022-09-17T17:01:23;9.25;;;5.60;;
21848;SDS011;11089;49.852;19.700;2022-09-17T17:04:24;10.98;;;5.13;;
21848;SDS011;11089;49.852;19.700;2022-09-17T17:07:25;9.48;;;5.13;;
21848;SDS011;11089;49.852;19.700;2022-09-17T17:10:26;12.40;;;6.90;;
21848;SDS011;11089;49.852;19.700;2022-09-17T17:13:27;10.23;;;6.60;;
21848;SDS011;11089;49.852;19.700;2022-09-17T17:16:27;11.48;;;5.97;;
21848;SDS011;11089;49.852;19.700;2022-09-17T17:19:29;9.23;;;6.25;;
21848;SDS011;11089;49.852;19.700;2022-09-17T17:22:30;11.65;;;6.15;;
21848;SDS011;11089;49.852;19.700;2022-09-17T17:25:31;9.90;;;5.18;;
21848;SDS011;11089;49.852;19.700;2022-09-17T17:28:32;9.45;;;4.80;;
21848;SDS011;11089;49.852;19.700;2022-09-17T17:31:35;7.30;;;4.95;;
21848;SDS011;11089;49.852;19.700;2022-09-17T17:34:36;8.27;;;4.65;;
21848;SDS011;11089;49.852;19.700;2022-09-17T17:37:37;7.93;;;5.28;;
21848;SDS011;11089;49.852;19.700;2022-09-17T17:40:38;12.80;;;6.78;;
21848;SDS011;11089;49.852;19.700;2022-09-17T17:43:40;15.48;;;7.35;;
21848;SDS011;11089;49.852;19.700;2022-09-17T17:46:41;10.20;;;6.28;;
21848;SDS011;11089;49.852;19.700;2022-09-17T17:49:42;9.80;;;6.07;;
21848;SDS011;11089;49.852;19.700;2022-09-17T17:52:43;9.48;;;6.28;;
21848;SDS011;11089;49.852;19.700;2022-09-17T17:59:03;11.40;;;6.55;;
21848;SDS011;11089;49.852;19.700;2022-09-17T18:02:05;16.58;;;8.48;;
21848;SDS011;11089;49.852;19.700;2022-09-17T18:05:06;15.50;;;8.18;;
21848;SDS011;11089;49.852;19.700;2022-09-17T18:08:07;14.80;;;7.45;;
21848;SDS011;11089;49.852;19.700;2022-09-17T18:11:08;13.57;;;7.35;;
21848;SDS011;11089;49.852;19.700;2022-09-17T18:14:11;13.18;;;6.55;;
21848;SDS011;11089;49.852;19.700;2022-09-17T18:17:13;9.95;;;6.93;;
21848;SDS011;11089;49.852;19.700;2022-09-17T18:20:14;9.90;;;6.55;;
21848;SDS011;11089;49.852;19.700;2022-09-17T18:23:15;9.35;;;6.32;;
21848;SDS011;11089;49.852;19.700;2022-09-17T18:26:17;10.30;;;6.68;;
21848;SDS011;11089;49.852;19.700;2022-09-17T18:29:20;14.82;;;8.07;;
21848;SDS011;11089;49.852;19.700;2022-09-17T18:32:21;13.55;;;7.40;;
21848;SDS011;11089;49.852;19.700;2022-09-17T18:35:22;10.85;;;7.45;;
21848;SDS011;11089;49.852;19.700;2022-09-17T18:38:23;13.07;;;7.32;;
21848;SDS011;11089;49.852;19.700;2022-09-17T18:41:24;15.98;;;8.85;;
21848;SDS011;11089;49.852;19.700;2022-09-17T18:44:25;13.48;;;7.70;;
21848;SDS011;11089;49.852;19.700;2022-09-17T18:47:25;12.18;;;7.25;;
21848;SDS011;11089;49.852;19.700;2022-09-17T18:50:26;11.82;;;7.70;;
21848;SDS011;11089;49.852;19.700;2022-09-17T18:53:28;10.82;;;6.35;;
21848;SDS011;11089;49.852;19.700;2022-09-17T18:56:30;13.23;;;6.47;;
21848;SDS011;11089;49.852;19.700;2022-09-17T18:59:32;12.30;;;7.05;;
21848;SDS011;11089;49.852;19.700;2022-09-17T19:02:33;10.50;;;6.68;;
21848;SDS011;11089;49.852;19.700;2022-09-17T19:05:34;8.20;;;5.75;;
21848;SDS011;11089;49.852;19.700;2022-09-17T19:08:35;12.77;;;6.18;;
21848;SDS011;11089;49.852;19.700;2022-09-17T19:11:36;10.07;;;5.90;;
21848;SDS011;11089;49.852;19.700;2022-09-17T19:14:37;8.13;;;5.75;;
21848;SDS011;11089;49.852;19.700;2022-09-17T19:17:38;7.88;;;5.15;;
21848;SDS011;11089;49.852;19.700;2022-09-17T19:20:39;8.52;;;5.88;;
21848;SDS011;11089;49.852;19.700;2022-09-17T19:23:40;11.73;;;7.00;;
21848;SDS011;11089;49.852;19.700;2022-09-17T19:26:42;11.07;;;6.72;;
21848;SDS011;11089;49.852;19.700;2022-09-17T19:29:43;9.27;;;5.57;;
21848;SDS011;11089;49.852;19.700;2022-09-17T19:32:44;11.20;;;5.60;;
21848;SDS011;11089;49.852;19.700;2022-09-17T19:35:46;8.20;;;5.30;;
21848;SDS011;11089;49.852;19.700;2022-09-17T19:38:49;6.95;;;4.93;;
21848;SDS011;11089;49.852;19.700;2022-09-17T19:41:50;11.48;;;5.45;;
21848;SDS011;11089;49.852;19.700;2022-09-17T19:44:51;7.95;;;5.13;;
21848;SDS011;11089;49.852;19.700;2022-09-17T19:47:52;8.13;;;5.28;;
21848;SDS011;11089;49.852;19.700;2022-09-17T19:50:55;9.45;;;5.57;;
21848;SDS011;11089;49.852;19.700;2022-09-17T19:53:57;8.18;;;5.10;;
21848;SDS011;11089;49.852;19.700;2022-09-17T19:56:58;6.88;;;5.07;;
21848;SDS011;11089;49.852;19.700;2022-09-17T19:59:59;8.35;;;4.57;;
21848;SDS011;11089;49.852;19.700;2022-09-17T20:03:00;8.27;;;4.88;;
21848;SDS011;11089;49.852;19.700;2022-09-17T20:06:03;9.32;;;5.50;;
21848;SDS011;11089;49.852;19.700;2022-09-17T20:09:06;7.05;;;5.10;;
21848;SDS011;11089;49.852;19.700;2022-09-17T20:12:07;8.73;;;5.10;;
21848;SDS011;11089;49.852;19.700;2022-09-17T20:15:08;8.90;;;4.88;;
21848;SDS011;11089;49.852;19.700;2022-09-17T20:18:09;7.90;;;5.00;;
21848;SDS011;11089;49.852;19.700;2022-09-17T20:21:11;8.48;;;5.32;;
21848;SDS011;11089;49.852;19.700;2022-09-17T20:24:14;8.77;;;5.40;;
21848;SDS011;11089;49.852;19.700;2022-09-17T20:27:16;7.80;;;5.20;;
21848;SDS011;11089;49.852;19.700;2022-09-17T20:30:17;8.93;;;5.32;;
21848;SDS011;11089;49.852;19.700;2022-09-17T20:33:18;7.43;;;5.30;;
21848;SDS011;11089;49.852;19.700;2022-09-17T20:36:20;8.80;;;5.93;;
21848;SDS011;11089;49.852;19.700;2022-09-17T20:39:23;7.80;;;5.35;;
21848;SDS011;11089;49.852;19.700;2022-09-17T20:42:24;7.40;;;5.35;;
21848;SDS011;11089;49.852;19.700;2022-09-17T20:45:24;8.90;;;5.80;;